DW2959 Murcia ES current weather conditions

sailwx.info

Wind from 078 at 3 knots

Air temperature 27.8° C
Dewpoint 8.1° C

Last reported at 2014-Oct-25 16:02 UTC.
Time now 2014-Oct-25 18:19 UTC

Location: N 38°00' W 001°02'.
View on Google Maps.

See reports from other nearby stations

  
Tides and Currents Weather Stations Pressure Air Temp Water Temp Dewpoint Dewpoint Depression Visibility Wind Speed Wind Dir Waves Ship Positions
date/time (UTC)wind fromknots sea level pressurealtimeterstation pressurevisibilityair tempwater tempwave heightnotes
2014-Oct-25 16:02 078 3 27.8
2014-Oct-25 15:45 079 1 28.3
2014-Oct-25 15:33 038 3 28.3
2014-Oct-25 15:16 038 3 28.3
2014-Oct-25 15:01 067 4 28.3
2014-Oct-25 14:45 059 3 28.9
2014-Oct-25 14:30 067 2 28.9
2014-Oct-25 14:15 017 2 28.3
2014-Oct-25 14:00 047 2 28.3
2014-Oct-25 13:45 051 2 27.8
2014-Oct-25 13:30 051 1 27.8
2014-Oct-25 13:15 059 0 27.8
2014-Oct-25 13:00 277 27.8
2014-Oct-25 12:45 276 27.2
2014-Oct-25 12:30 276 26.7
2014-Oct-25 12:14 276 26.1
2014-Oct-25 11:59 276 25.0
2014-Oct-25 11:44 276 0 25.0
2014-Oct-25 11:30 276 1 24.4
2014-Oct-25 11:15 262 1 23.9
2014-Oct-25 11:00 271 3 23.3
2014-Oct-25 10:45 265 2 22.8
2014-Oct-25 10:30 273 2 22.2
2014-Oct-25 10:15 271 2 21.1
2014-Oct-25 09:58 223 2 20.6
2014-Oct-25 09:43 267 2 20.0
2014-Oct-25 09:28 260 2 19.4
2014-Oct-25 09:13 264 3 18.9
2014-Oct-25 08:58 240 3 18.9
2014-Oct-25 08:43 267 3 18.3
2014-Oct-25 08:28 223 1 17.8
2014-Oct-25 08:13 275 1 17.2
2014-Oct-25 07:59 230 1 16.7
2014-Oct-25 07:42 247 2 16.1
2014-Oct-25 07:27 250 1 15.6
2014-Oct-25 07:12 267 1 15.6
2014-Oct-25 06:58 237 15.0
2014-Oct-25 06:42
2014-Oct-25 06:27
2014-Oct-25 06:11
2014-Oct-25 05:58
2014-Oct-25 05:43
2014-Oct-25 05:27
2014-Oct-25 05:12
2014-Oct-25 04:56
2014-Oct-25 04:42
2014-Oct-25 04:26
2014-Oct-25 04:11
2014-Oct-25 03:56
2014-Oct-25 03:42
2014-Oct-25 03:26
2014-Oct-25 03:11
2014-Oct-25 02:56
2014-Oct-25 02:40
2014-Oct-25 02:26
2014-Oct-25 02:10
2014-Oct-25 01:55
2014-Oct-25 01:40
2014-Oct-25 01:25 256 1 16.1
2014-Oct-25 01:11 232 3 16.7
2014-Oct-25 00:54 231 3 16.1
2014-Oct-25 00:39 234 2 15.0
2014-Oct-25 00:25 083 14.4
2014-Oct-25 00:10 080 14.4
2014-Oct-24 23:55 080 14.4
2014-Oct-24 23:40 080 14.4
2014-Oct-24 23:24 081 14.4
2014-Oct-24 23:10 080 14.4
2014-Oct-24 22:55 080 15.0
2014-Oct-24 22:38 080 15.0
2014-Oct-24 22:24 080 15.0
2014-Oct-24 22:09 081 15.0
2014-Oct-24 21:53 080 15.6
2014-Oct-24 21:23 080 15.6
2014-Oct-24 20:54 080 16.1
2014-Oct-24 20:38 080 16.7
2014-Oct-24 20:24 080 17.2
2014-Oct-24 20:09 080 17.8
2014-Oct-24 19:53 080 17.8
2014-Oct-24 19:38 080 0 18.3
2014-Oct-24 19:23 080 1 18.9
2014-Oct-24 19:08 080 18.9
2014-Oct-24 18:54 080 19.4
2014-Oct-24 18:37 080 0 20.0
2014-Oct-24 18:23 081 0 21.1
2014-Oct-24 18:07 082 2 21.1
2014-Oct-24 17:52 079 1 21.7
2014-Oct-24 17:38 084 1 22.8
2014-Oct-24 17:23 086 0 23.9
2014-Oct-24 17:08 086 25.6
2014-Oct-24 16:37 086 26.7
2014-Oct-24 16:22 087 0 27.2
2014-Oct-24 16:07 087 0 27.8
2014-Oct-24 15:52 094 1 27.8
2014-Oct-24 15:37 092 1 27.8
2014-Oct-24 15:22 074 2 27.8
2014-Oct-24 15:07 061 2 27.8
2014-Oct-24 14:51 079 2 27.8
2014-Oct-24 14:21 070 2 27.8
2014-Oct-24 14:06 050 3 27.8
2014-Oct-24 13:51 082 1 27.8
2014-Oct-24 13:36 040 2 28.3
2014-Oct-24 13:22 078 1 27.8
2014-Oct-24 13:07 080 3 27.8
2014-Oct-24 12:51 076 1 27.8
2014-Oct-24 12:36 091 2 27.2
2014-Oct-24 12:21 034 0 27.2
2014-Oct-24 12:06 257 27.2
2014-Oct-24 11:51 256 26.1
2014-Oct-24 11:36 256 0 25.6
2014-Oct-24 11:21 265 25.0
2014-Oct-24 11:06 265 1 24.4
2014-Oct-24 10:50 265 2 23.9
2014-Oct-24 10:35 215 3 23.9
2014-Oct-24 10:20 261 2 23.3
2014-Oct-24 10:05 232 3 22.8
2014-Oct-24 09:51 250 2 22.2
2014-Oct-24 09:34 268 3 21.7
2014-Oct-24 09:20 272 2 21.7
2014-Oct-24 09:05 265 4 20.6
2014-Oct-24 08:50 262 4 20.0
2014-Oct-24 08:34 256 3 19.4
2014-Oct-24 08:19 269 4 19.4
2014-Oct-24 08:04 246 3 18.9
2014-Oct-24 07:49 237 1 18.3
2014-Oct-24 07:35 255 1 17.8
2014-Oct-24 07:18 257 1 17.8
2014-Oct-24 07:03 261 2 17.2
2014-Oct-24 06:49
2014-Oct-24 06:33
2014-Oct-24 06:18
2014-Oct-24 06:04
2014-Oct-24 05:49
2014-Oct-24 05:33
2014-Oct-24 05:18
2014-Oct-24 05:02
2014-Oct-24 04:47
2014-Oct-24 04:32
2014-Oct-24 04:17
2014-Oct-24 04:02
2014-Oct-24 03:47
2014-Oct-24 03:32
2014-Oct-24 03:17
2014-Oct-24 03:02
2014-Oct-24 02:47
2014-Oct-24 02:32
2014-Oct-24 02:17
2014-Oct-24 02:02
2014-Oct-24 01:47
2014-Oct-24 01:31 257 3 16.7
2014-Oct-24 01:16 264 2 16.7
2014-Oct-24 01:01 267 3 16.7
2014-Oct-24 00:46 269 3 17.8
2014-Oct-24 00:31 255 2 17.8
2014-Oct-24 00:16 219 3 17.8
2014-Oct-24 00:01 224 3 17.8
2014-Oct-23 23:46 227 3 18.3
2014-Oct-23 23:31 262 3 18.3
2014-Oct-23 23:16 238 3 18.3
2014-Oct-23 23:01 227 3 18.3
2014-Oct-23 22:46 263 2 18.3
2014-Oct-23 22:31 222 4 18.3
2014-Oct-23 22:16 227 4 17.8
2014-Oct-23 22:01 204 0 17.2
2014-Oct-23 21:46 186 0 16.7
2014-Oct-23 21:31 183 16.7
2014-Oct-23 21:16 183 17.2
2014-Oct-23 21:01 183 17.8
2014-Oct-23 20:46 183 18.3
2014-Oct-23 20:31 183 18.3
2014-Oct-23 20:16 183 18.3
2014-Oct-23 20:01 183 18.9
2014-Oct-23 19:46 183 18.9
2014-Oct-23 19:31 183 19.4
2014-Oct-23 19:16 183 20.0
2014-Oct-23 19:01 183 20.6
2014-Oct-23 18:46 183 21.1
2014-Oct-23 18:31 183 0 21.7
2014-Oct-23 18:16 183 21.7
2014-Oct-23 18:00 183 22.2